createdAt,value
2023-03-20T00:02:40.033Z,6.2
2023-03-20T00:08:20.063Z,6.3
2023-03-20T00:13:30.050Z,6.3
2023-03-20T00:19:29.578Z,5.9
2023-03-20T00:24:46.379Z,5.8
2023-03-20T00:30:19.662Z,5.9
2023-03-20T00:36:05.670Z,5.9
2023-03-20T00:41:34.192Z,5.8
2023-03-20T00:47:03.704Z,5.7
2023-03-20T00:52:30.630Z,5.6
2023-03-20T01:09:07.545Z,6
2023-03-20T01:15:02.089Z,5.7
2023-03-20T01:20:21.221Z,5.3
2023-03-20T01:26:02.542Z,5.2
2023-03-20T01:37:11.848Z,4.3
2023-03-20T01:42:28.328Z,4.6
2023-03-20T01:48:13.552Z,4.5
2023-03-20T01:53:54.828Z,5.2
2023-03-20T01:59:05.265Z,4.7
2023-03-20T02:04:44.566Z,4.5
2023-03-20T02:10:26.647Z,4.3
2023-03-20T02:15:52.059Z,4.3
2023-03-20T02:21:21.297Z,4.4
2023-03-20T02:27:06.468Z,4.5
2023-03-20T02:32:41.879Z,4.7
2023-03-20T02:38:00.087Z,4.4
2023-03-20T02:43:32.651Z,4.3
2023-03-20T02:49:29.386Z,4.1
2023-03-20T02:54:46.739Z,4
2023-03-20T03:00:14.777Z,3.5
2023-03-20T03:06:05.208Z,4.7
2023-03-20T03:11:35.993Z,4.8
2023-03-20T03:17:06.374Z,4.4
2023-03-20T03:22:27.662Z,4.4
2023-03-20T03:28:11.516Z,4.5
2023-03-20T03:33:31.041Z,4.5
2023-03-20T03:39:01.171Z,4.6
2023-03-20T03:44:36.936Z,4.4
2023-03-20T03:50:15.479Z,4.3
2023-03-20T03:55:55.860Z,4.2
2023-03-20T04:01:20.522Z,4.1
2023-03-20T04:06:50.347Z,4.1
2023-03-20T04:12:17.513Z,4
2023-03-20T04:18:13.496Z,4.2
2023-03-20T04:23:22.071Z,4.2
2023-03-20T04:29:15.312Z,4.3
2023-03-20T04:34:40.570Z,4.5
2023-03-20T04:40:07.741Z,4.2
2023-03-20T04:45:46.681Z,3.9
2023-03-20T04:51:28.404Z,3.8
2023-03-20T04:56:43.723Z,4
2023-03-20T05:02:21.127Z,3.3
2023-03-20T05:07:47.767Z,3.8
2023-03-20T05:13:25.531Z,3.1
2023-03-20T05:18:59.266Z,2.8
2023-03-20T05:24:43.830Z,3.2
2023-03-20T05:30:11.047Z,3.6
2023-03-20T05:35:55.873Z,3.8
2023-03-20T05:41:13.424Z,3.8
2023-03-20T05:46:38.591Z,3.8
2023-03-20T05:52:25.028Z,3.6
2023-03-20T05:57:54.070Z,3.4
2023-03-20T06:03:30.604Z,3.3
2023-03-20T06:08:55.357Z,3.5
2023-03-20T06:14:44.916Z,2.9
2023-03-20T06:19:56.951Z,3.2
2023-03-20T06:25:29.623Z,3.4
2023-03-20T06:31:01.677Z,3.5
2023-03-20T06:36:45.480Z,3.6
2023-03-20T06:42:16.218Z,3.8
2023-03-20T06:47:45.649Z,4.5
2023-03-20T06:53:15.752Z,5.1
2023-03-20T06:58:47.660Z,5.4
2023-03-20T07:04:20.105Z,5.8
2023-03-20T07:10:02.964Z,6.3
2023-03-20T07:15:38.030Z,6.7
2023-03-20T07:21:16.288Z,6.7
2023-03-20T07:26:39.820Z,7
2023-03-20T07:32:25.141Z,6.7
2023-03-20T07:37:58.220Z,7
2023-03-20T07:43:21.967Z,7.4
2023-03-20T07:48:55.988Z,7.6
2023-03-20T07:54:25.004Z,8.2
2023-03-20T08:00:14.343Z,8.2
2023-03-20T08:05:30.238Z,8.8
2023-03-20T08:11:20.436Z,8.8
2023-03-20T08:17:02.513Z,8.9
2023-03-20T08:22:12.712Z,9.4
2023-03-20T08:28:04.123Z,9.8
2023-03-20T08:33:43.268Z,10.4
2023-03-20T08:39:09.893Z,10
2023-03-20T08:44:52.841Z,10.4
2023-03-20T08:50:07.281Z,10.8
2023-03-20T08:55:59.387Z,10.8
2023-03-20T09:01:46.196Z,11.2
2023-03-20T09:07:10.346Z,11.4
2023-03-20T09:12:47.972Z,10.8
2023-03-20T09:18:23.031Z,11.6
2023-03-20T09:23:51.878Z,11.7
2023-03-20T09:29:40.078Z,11.3
2023-03-20T09:34:52.683Z,11.5
2023-03-20T09:40:47.922Z,11.5
2023-03-20T09:46:07.573Z,12.1
2023-03-20T09:51:57.709Z,12.4
2023-03-20T09:57:36.358Z,11.5
2023-03-20T10:03:07.686Z,12.1
2023-03-20T10:08:25.249Z,12
2023-03-20T10:14:12.105Z,11.6
2023-03-20T10:19:37.735Z,12
2023-03-20T10:25:33.430Z,12.7
2023-03-20T10:31:01.814Z,12.2
2023-03-20T14:20:39.103Z,14.4
2023-03-20T14:37:38.793Z,13.5
2023-03-20T14:43:00.791Z,13.6
2023-03-20T14:54:31.964Z,14.1
2023-03-20T15:28:13.766Z,14.1
2023-03-20T15:33:34.183Z,13.7
2023-03-20T15:39:12.994Z,14.2
2023-03-20T15:44:43.264Z,14.3
2023-03-20T15:50:28.752Z,13.8
2023-03-20T15:56:17.593Z,13.9
2023-03-20T16:01:33.644Z,13.9
2023-03-20T16:07:10.672Z,13.6
2023-03-20T16:18:18.916Z,12.9
2023-03-20T16:23:55.530Z,12.8
2023-03-20T16:35:25.283Z,12.9
2023-03-20T16:40:57.207Z,12.8
2023-03-20T16:46:15.167Z,12.8
2023-03-20T16:52:04.703Z,12.7
2023-03-20T16:57:30.548Z,12.6
2023-03-20T17:03:16.683Z,12.6
2023-03-20T17:08:35.139Z,12.5
2023-03-20T17:14:19.178Z,12.4
2023-03-20T17:19:50.441Z,12.2
2023-03-20T17:25:27.219Z,10.9
2023-03-20T17:30:43.454Z,10.6
2023-03-20T17:36:14.935Z,10.6
2023-03-20T17:41:59.270Z,11
2023-03-20T17:47:46.342Z,10.8
2023-03-20T17:53:11.928Z,10.6
2023-03-20T17:58:43.323Z,10.5
2023-03-20T18:04:28.561Z,9.8
2023-03-20T18:09:45.082Z,9.6
2023-03-20T18:15:18.934Z,10
2023-03-20T18:21:09.039Z,10
2023-03-20T18:26:41.756Z,10.1
2023-03-20T18:32:10.053Z,10.1
2023-03-20T18:37:49.206Z,9.7
2023-03-20T18:43:01.858Z,10.1
2023-03-20T18:48:39.194Z,9.9
2023-03-20T18:54:23.819Z,9.2
2023-03-20T18:59:41.063Z,9
2023-03-20T19:05:18.920Z,9.6
2023-03-20T19:11:12.147Z,9.2
2023-03-20T19:16:42.430Z,9
2023-03-20T19:22:18.929Z,8.6
2023-03-20T19:27:33.012Z,8.3
2023-03-20T19:33:10.508Z,8.2
2023-03-20T19:38:43.115Z,7.9
2023-03-20T19:44:20.269Z,8.2
2023-03-20T19:50:04.870Z,8.3
2023-03-20T19:55:29.816Z,8.1
2023-03-20T20:01:14.207Z,8.3
2023-03-20T20:06:39.812Z,8.1
2023-03-20T20:11:59.505Z,8.4
2023-03-20T20:17:46.121Z,8.1
2023-03-20T20:23:19.437Z,7.9
2023-03-20T20:28:52.777Z,8.2
2023-03-20T20:39:52.482Z,7.9
2023-03-20T20:45:31.040Z,7.7
2023-03-20T20:51:03.478Z,7.9
2023-03-20T20:56:34.410Z,8.5
2023-03-20T21:02:30.092Z,8.4
2023-03-20T21:08:05.994Z,8.3
2023-03-20T21:13:24.166Z,8.1
2023-03-20T21:18:52.309Z,8.2
2023-03-20T21:24:32.961Z,7
2023-03-20T21:30:01.180Z,6.7
2023-03-20T21:35:28.109Z,6.8
2023-03-20T21:41:12.955Z,6.8
2023-03-20T21:53:00.278Z,6.8
2023-03-20T22:03:50.366Z,6.7
2023-03-20T22:26:21.202Z,6.8
2023-03-20T22:37:37.682Z,6.5
2023-03-20T22:42:49.304Z,6.1
2023-03-20T22:47:43.326Z,6.6
2023-03-20T22:53:07.300Z,6.3
2023-03-20T22:59:01.999Z,6.3
2023-03-20T23:04:33.726Z,6.2
2023-03-20T23:09:59.356Z,6.4
2023-03-20T23:15:46.787Z,5.5
2023-03-20T23:21:17.598Z,5.3
2023-03-20T23:26:31.347Z,4.9
2023-03-20T23:32:19.630Z,4.9
2023-03-20T23:37:41.217Z,4.9
2023-03-20T23:43:08.768Z,5
2023-03-20T23:48:52.754Z,5.1
2023-03-20T23:54:20.583Z,5.3
